Fleming, Canada
Current Conditions -  °F | °C
As of 10:00 PM on Saturday 25 Oct 2014 (Local Time) from CYBR Reporting Station
Scattered Clouds Scattered Clouds  
Wind Chill: 34°   Ceiling: Unl
Heat Index: 34°   Visibility: 15mi
Dew Point: 23°   Wind: 3mph
Humidity: 65%   Direction: 20°NNE
Pressure: 29.95"   Gusts: NA
Location:  50.07°N, 101.52°W
Report Text: CYBR 260400Z 02003KT 15SM SCT250 01/M05 A2995 RMK CI3 SLP160
Loading
Personal Weather Stations






























Interactive Weather Map
Tropical Storm Tracking
New forecast layout! Learn more

10-Day Weather Forecast

Advertisements
Track Severe Weather on mobile